createdAt,value
2023-01-31T00:01:59.971Z,1.30
2023-01-31T00:04:28.365Z,1.35
2023-01-31T00:06:56.407Z,1.65
2023-01-31T00:09:24.496Z,2.05
2023-01-31T00:11:53.417Z,1.77
2023-01-31T00:14:21.880Z,0.47
2023-01-31T00:16:50.015Z,1.75
2023-01-31T00:19:19.612Z,1.05
2023-01-31T00:21:47.571Z,1.90
2023-01-31T00:24:15.967Z,1.70
2023-01-31T00:26:44.094Z,1.42
2023-01-31T00:29:12.601Z,1.23
2023-01-31T00:31:40.885Z,1.73
2023-01-31T00:34:09.040Z,1.52
2023-01-31T00:36:38.890Z,1.15
2023-01-31T00:39:10.694Z,2.17
2023-01-31T00:41:39.709Z,0.73
2023-01-31T00:44:08.819Z,0.55
2023-01-31T00:46:39.248Z,1.17
2023-01-31T00:49:07.387Z,1.60
2023-01-31T00:51:35.950Z,1.00
2023-01-31T00:54:05.533Z,1.02
2023-01-31T00:56:33.918Z,0.52
2023-01-31T00:59:04.344Z,0.63
2023-01-31T01:01:32.671Z,1.13
2023-01-31T01:04:01.050Z,1.67
2023-01-31T01:06:34.622Z,1.20
2023-01-31T01:09:03.312Z,0.57
2023-01-31T01:11:34.591Z,0.82
2023-01-31T01:14:02.737Z,0.75
2023-01-31T01:16:34.381Z,0.70
2023-01-31T01:19:05.272Z,1.85
2023-01-31T01:21:40.724Z,0.98
2023-01-31T01:24:13.712Z,0.50
2023-01-31T01:26:44.025Z,0.63
2023-01-31T01:29:12.394Z,0.60
2023-01-31T01:31:41.089Z,0.75
2023-01-31T01:34:13.845Z,0.50
2023-01-31T01:36:42.374Z,0.63
2023-01-31T01:39:13.388Z,1.02
2023-01-31T01:41:45.520Z,0.98
2023-01-31T01:44:44.429Z,0.63
2023-01-31T01:47:19.577Z,0.63
2023-01-31T01:49:49.608Z,1.10
2023-01-31T01:52:19.285Z,0.32
2023-01-31T01:54:51.338Z,0.73
2023-01-31T01:57:25.453Z,0.90
2023-01-31T02:00:00.321Z,0.40
2023-01-31T02:02:29.121Z,0.32
2023-01-31T02:04:57.905Z,0.50
2023-01-31T02:07:25.973Z,0.85
2023-01-31T02:10:01.303Z,0.32
2023-01-31T02:12:33.246Z,1.23
2023-01-31T02:15:01.720Z,1.13
2023-01-31T02:17:29.961Z,0.70
2023-01-31T02:20:17.716Z,0.70
2023-01-31T02:23:03.442Z,0.63
2023-01-31T02:26:08.474Z,0.57
2023-01-31T02:29:21.463Z,0.32
2023-01-31T02:32:31.197Z,0.30
2023-01-31T02:35:11.541Z,1.05
2023-01-31T02:37:50.495Z,1.13
2023-01-31T02:40:25.505Z,0.80
2023-01-31T02:43:01.388Z,0.85
2023-01-31T02:45:38.915Z,0.52
2023-01-31T02:48:19.341Z,0.85
2023-01-31T02:51:01.786Z,0.77
2023-01-31T02:53:34.392Z,0.47
2023-01-31T02:56:17.971Z,1.10
2023-01-31T02:58:51.826Z,1.10
2023-01-31T03:01:24.596Z,1.65
2023-01-31T03:03:58.385Z,0.95
2023-01-31T03:07:01.764Z,0.70
2023-01-31T03:09:38.873Z,0.75
2023-01-31T03:12:45.568Z,0.40
2023-01-31T03:15:52.328Z,1.20
2023-01-31T03:18:24.256Z,1.33
2023-01-31T03:21:01.771Z,1.48
2023-01-31T03:23:32.585Z,0.35
2023-01-31T03:26:02.149Z,2.65
2023-01-31T03:28:33.053Z,1.75
2023-01-31T03:31:05.392Z,0.98
2023-01-31T03:33:37.006Z,0.35
2023-01-31T03:36:16.945Z,0.20
2023-01-31T03:38:54.509Z,1.40
2023-01-31T03:41:30.021Z,0.50
2023-01-31T03:44:03.160Z,0.95
2023-01-31T03:46:36.550Z,0.30
2023-01-31T03:49:09.871Z,0.77
2023-01-31T03:51:46.226Z,2.45
2023-01-31T03:54:19.897Z,1.08
2023-01-31T03:56:54.322Z,0.30
2023-01-31T03:59:27.286Z,1.02
2023-01-31T04:01:58.814Z,0.63
2023-01-31T04:04:32.774Z,0.30
2023-01-31T04:07:03.450Z,0.82
2023-01-31T04:09:32.788Z,0.20
2023-01-31T04:12:02.630Z,0.70
2023-01-31T04:14:30.686Z,0.35
2023-01-31T04:16:58.787Z,0.50
2023-01-31T04:19:26.748Z,0.32
2023-01-31T04:21:54.844Z,0.82
2023-01-31T04:24:25.078Z,0.30
2023-01-31T04:26:53.122Z,0.45
2023-01-31T04:29:21.049Z,0.75
2023-01-31T04:31:49.163Z,1.55
2023-01-31T04:34:17.231Z,0.25
2023-01-31T04:36:45.241Z,0.30
2023-01-31T04:39:13.712Z,0.20
2023-01-31T04:41:43.134Z,1.65
2023-01-31T04:44:12.033Z,0.70
2023-01-31T04:46:40.135Z,0.55
2023-01-31T04:49:08.766Z,1.13
2023-01-31T04:51:36.803Z,0.70
2023-01-31T04:54:05.125Z,0.38
2023-01-31T04:56:33.124Z,1.15
2023-01-31T04:59:02.736Z,0.43
2023-01-31T05:01:30.941Z,0.70
2023-01-31T05:03:59.318Z,1.20
2023-01-31T05:06:27.291Z,0.60
2023-01-31T05:08:55.306Z,0.65
2023-01-31T05:11:23.521Z,0.57
2023-01-31T05:13:51.518Z,2.00
2023-01-31T05:16:21.064Z,0.75
2023-01-31T05:18:50.893Z,0.60
2023-01-31T05:21:18.919Z,0.20
2023-01-31T05:23:46.886Z,0.25
2023-01-31T05:26:14.941Z,0.22
2023-01-31T05:28:43.060Z,0.75
2023-01-31T05:31:13.220Z,0.35
2023-01-31T05:33:43.087Z,0.22
2023-01-31T05:36:11.083Z,0.47
2023-01-31T05:38:39.052Z,0.20
2023-01-31T05:41:07.000Z,0.98
2023-01-31T05:43:36.456Z,0.70
2023-01-31T05:46:05.350Z,0.43
2023-01-31T05:48:33.581Z,1.48
2023-01-31T05:51:03.311Z,0.80
2023-01-31T05:53:31.460Z,0.20
2023-01-31T05:55:59.453Z,2.15
2023-01-31T05:58:27.405Z,1.25
2023-01-31T06:00:56.743Z,0.73
2023-01-31T06:03:24.693Z,0.30
2023-01-31T06:05:52.747Z,2.85
2023-01-31T06:08:22.215Z,0.63
2023-01-31T06:10:50.199Z,1.52
2023-01-31T06:13:18.197Z,3.13
2023-01-31T06:15:46.606Z,0.35
2023-01-31T06:18:14.625Z,1.48
2023-01-31T06:20:42.516Z,2.47
2023-01-31T06:23:10.607Z,0.57
2023-01-31T06:25:39.973Z,0.82
2023-01-31T06:28:08.040Z,1.35
2023-01-31T06:30:37.169Z,1.00
2023-01-31T06:33:05.294Z,1.83
2023-01-31T06:35:34.128Z,0.52
2023-01-31T06:38:02.180Z,1.13
2023-01-31T06:40:30.825Z,1.17
2023-01-31T06:43:00.902Z,0.45
2023-01-31T06:45:28.971Z,0.50
2023-01-31T06:47:57.103Z,3.13
2023-01-31T06:50:25.073Z,0.60
2023-01-31T06:52:52.986Z,0.65
2023-01-31T06:55:21.360Z,1.00
2023-01-31T06:57:49.898Z,2.33
2023-01-31T07:00:20.313Z,1.67
2023-01-31T07:02:48.709Z,1.63
2023-01-31T07:05:16.837Z,0.30
2023-01-31T07:07:44.991Z,1.50
2023-01-31T07:10:13.576Z,0.30
2023-01-31T07:12:42.126Z,1.45
2023-01-31T07:15:11.882Z,3.85
2023-01-31T07:17:41.221Z,13.40
2023-01-31T07:20:10.433Z,9.98
2023-01-31T07:22:38.426Z,9.30
2023-01-31T07:25:07.275Z,13.00
2023-01-31T07:27:35.240Z,9.68
2023-01-31T07:30:03.190Z,3.15
2023-01-31T07:32:32.303Z,2.50
2023-01-31T07:35:01.652Z,2.72
2023-01-31T07:37:29.972Z,2.00
2023-01-31T07:39:57.878Z,2.17
2023-01-31T07:42:25.968Z,3.63
2023-01-31T07:44:54.083Z,1.48
2023-01-31T07:47:22.121Z,4.10
2023-01-31T07:49:50.654Z,1.38
2023-01-31T07:52:20.079Z,2.85
2023-01-31T07:54:49.133Z,0.68
2023-01-31T07:57:17.927Z,1.73
2023-01-31T07:59:46.247Z,2.22
2023-01-31T08:02:44.454Z,1.25
2023-01-31T08:05:12.679Z,2.70
2023-01-31T08:07:42.142Z,2.45
2023-01-31T08:10:11.680Z,2.33
2023-01-31T08:12:39.655Z,1.48
2023-01-31T08:15:08.708Z,7.25
2023-01-31T08:17:36.599Z,1.83
2023-01-31T08:20:04.682Z,1.55
2023-01-31T08:22:32.843Z,1.27
2023-01-31T08:25:02.253Z,3.03
2023-01-31T08:27:30.432Z,3.97
2023-01-31T08:29:58.660Z,1.95
2023-01-31T08:32:26.605Z,1.80
2023-01-31T08:34:54.521Z,1.58
2023-01-31T08:37:22.676Z,2.60
2023-01-31T08:39:50.594Z,1.77
2023-01-31T08:42:19.981Z,1.90
2023-01-31T08:44:47.961Z,2.60
2023-01-31T08:47:16.015Z,1.48
2023-01-31T08:49:43.938Z,4.18
2023-01-31T08:52:11.938Z,1.38
2023-01-31T08:54:39.956Z,2.80
2023-01-31T08:57:07.895Z,2.83
2023-01-31T08:59:37.311Z,4.70
2023-01-31T09:02:05.363Z,1.90
2023-01-31T09:04:33.575Z,1.45
2023-01-31T09:07:01.608Z,1.58
2023-01-31T09:09:30.642Z,1.27
2023-01-31T09:11:58.731Z,2.33
2023-01-31T09:14:26.737Z,1.42
2023-01-31T09:16:56.197Z,11.25
2023-01-31T09:19:24.590Z,8.38
2023-01-31T09:21:52.704Z,10.73
2023-01-31T09:24:20.674Z,7.30
2023-01-31T09:26:48.770Z,9.40
2023-01-31T09:29:16.840Z,5.72
2023-01-31T09:31:44.930Z,9.60
2023-01-31T09:34:15.254Z,6.32
2023-01-31T09:36:43.667Z,4.78
2023-01-31T09:39:12.949Z,4.90
2023-01-31T09:41:45.933Z,5.78
2023-01-31T09:44:20.952Z,5.20
2023-01-31T09:46:54.123Z,5.05
2023-01-31T09:49:28.655Z,5.05
2023-01-31T09:52:00.984Z,4.97
2023-01-31T09:54:34.793Z,3.88
2023-01-31T09:57:15.016Z,3.03
2023-01-31T09:59:50.111Z,3.40
2023-01-31T10:02:48.927Z,2.75
2023-01-31T10:05:29.351Z,3.40
2023-01-31T10:08:09.340Z,2.53
2023-01-31T10:10:40.557Z,1.65
2023-01-31T10:13:17.089Z,2.20
2023-01-31T10:15:49.663Z,2.45
2023-01-31T10:18:24.609Z,2.40
2023-01-31T10:20:58.015Z,2.33
2023-01-31T10:23:32.274Z,1.27
2023-01-31T10:26:02.261Z,3.40
2023-01-31T10:28:37.037Z,2.30
2023-01-31T10:31:11.485Z,1.85
2023-01-31T10:33:49.428Z,2.85
2023-01-31T10:36:26.132Z,1.30
2023-01-31T10:39:03.700Z,3.17
2023-01-31T10:41:40.906Z,0.70
2023-01-31T10:44:19.085Z,2.42
2023-01-31T10:46:48.780Z,1.17
2023-01-31T10:49:16.970Z,3.13
2023-01-31T10:52:08.798Z,5.97
2023-01-31T10:54:48.945Z,1.33
2023-01-31T10:57:18.139Z,2.63
2023-01-31T10:59:48.709Z,2.17
2023-01-31T11:02:21.361Z,1.65
2023-01-31T11:04:51.611Z,2.22
2023-01-31T11:07:22.516Z,0.60
2023-01-31T11:09:54.175Z,1.52
2023-01-31T11:12:22.986Z,0.68
2023-01-31T11:15:07.915Z,1.27
2023-01-31T11:17:38.781Z,1.50
2023-01-31T11:20:07.758Z,1.13
2023-01-31T11:22:38.787Z,0.77
2023-01-31T11:25:08.095Z,2.78
2023-01-31T11:27:40.450Z,1.55
2023-01-31T11:30:23.240Z,1.83
2023-01-31T11:32:51.583Z,1.13
2023-01-31T11:35:26.740Z,1.13
2023-01-31T11:37:58.297Z,2.35
2023-01-31T11:40:32.048Z,1.27
2023-01-31T11:43:02.594Z,0.47
2023-01-31T11:45:32.985Z,0.95
2023-01-31T11:48:08.718Z,2.92
2023-01-31T11:50:40.237Z,2.60
2023-01-31T11:53:19.834Z,3.15
2023-01-31T11:55:49.113Z,1.00
2023-01-31T11:58:21.361Z,3.00
2023-01-31T12:00:58.283Z,0.73
2023-01-31T12:03:27.691Z,0.80
2023-01-31T12:06:02.629Z,0.93
2023-01-31T12:08:34.286Z,2.47
2023-01-31T12:11:06.063Z,1.95
2023-01-31T12:13:47.798Z,2.50
2023-01-31T12:16:19.039Z,0.85
2023-01-31T12:19:00.669Z,1.00
2023-01-31T12:21:41.362Z,1.50
2023-01-31T12:24:25.742Z,1.52
2023-01-31T12:26:57.380Z,3.60
2023-01-31T12:29:46.046Z,1.20
2023-01-31T12:32:38.815Z,2.90
2023-01-31T12:35:27.799Z,0.95
2023-01-31T12:38:07.784Z,1.40
2023-01-31T12:40:46.094Z,4.47
2023-01-31T12:43:28.404Z,4.32
2023-01-31T12:46:09.936Z,3.28
2023-01-31T12:49:05.399Z,4.63
2023-01-31T12:51:44.523Z,5.85
2023-01-31T12:54:28.650Z,1.13
2023-01-31T12:57:22.536Z,1.98
2023-01-31T12:59:58.048Z,0.30
2023-01-31T13:02:41.832Z,2.00
2023-01-31T13:05:20.621Z,1.40
2023-01-31T13:07:52.356Z,2.85
2023-01-31T13:10:31.564Z,2.15
2023-01-31T13:13:01.983Z,0.77
2023-01-31T13:15:38.202Z,2.08
2023-01-31T13:18:07.688Z,2.15
2023-01-31T13:20:40.096Z,1.80
2023-01-31T13:23:14.198Z,1.58
2023-01-31T13:25:49.824Z,1.48
2023-01-31T13:28:22.997Z,16.73
2023-01-31T13:30:56.339Z,1.85
2023-01-31T13:33:35.979Z,1.67
2023-01-31T13:36:18.090Z,0.60
2023-01-31T13:38:47.174Z,2.90
2023-01-31T13:41:22.043Z,3.22
2023-01-31T13:43:51.545Z,2.45
2023-01-31T13:46:24.569Z,0.88
2023-01-31T13:48:57.233Z,1.20
2023-01-31T13:51:30.688Z,2.60
2023-01-31T13:54:03.322Z,0.52
2023-01-31T13:56:35.487Z,2.97
2023-01-31T13:59:09.522Z,3.83
2023-01-31T14:01:46.411Z,2.55
2023-01-31T14:04:39.155Z,3.55
2023-01-31T14:07:20.168Z,5.60
2023-01-31T14:10:21.364Z,1.40
2023-01-31T14:12:49.786Z,3.22
2023-01-31T14:15:51.030Z,2.67
2023-01-31T14:18:43.806Z,1.33
2023-01-31T14:21:54.869Z,2.22
2023-01-31T14:25:04.733Z,0.88
2023-01-31T14:27:36.860Z,5.38
2023-01-31T14:30:34.704Z,2.33
2023-01-31T14:33:22.130Z,0.80
2023-01-31T14:36:17.669Z,3.05
2023-01-31T14:39:08.400Z,3.92
2023-01-31T14:41:53.382Z,0.95
2023-01-31T14:44:31.348Z,0.95
2023-01-31T14:47:14.203Z,1.95
2023-01-31T14:50:12.151Z,2.47
2023-01-31T14:52:57.290Z,2.70
2023-01-31T14:55:41.367Z,3.17
2023-01-31T14:58:16.287Z,1.38
2023-01-31T15:00:50.529Z,2.35
2023-01-31T15:03:24.162Z,3.50
2023-01-31T15:05:56.863Z,1.48
2023-01-31T15:08:40.654Z,4.13
2023-01-31T15:11:14.885Z,1.58
2023-01-31T15:13:47.432Z,1.60
2023-01-31T15:16:25.045Z,3.17
2023-01-31T15:19:00.098Z,3.58
2023-01-31T15:21:32.306Z,1.63
2023-01-31T15:24:02.028Z,4.38
2023-01-31T15:26:34.214Z,0.98
2023-01-31T15:29:03.990Z,2.17
2023-01-31T15:31:37.764Z,2.13
2023-01-31T15:34:15.433Z,2.45
2023-01-31T15:36:50.056Z,2.10
2023-01-31T15:39:24.324Z,1.25
2023-01-31T15:41:52.503Z,2.22
2023-01-31T15:44:22.173Z,7.63
2023-01-31T15:46:51.565Z,11.55
2023-01-31T15:49:39.054Z,6.70
2023-01-31T15:52:16.992Z,12.27
2023-01-31T15:54:56.531Z,9.13
2023-01-31T15:57:27.689Z,12.30
2023-01-31T15:59:57.146Z,5.93
2023-01-31T16:02:29.412Z,9.65
2023-01-31T16:04:58.419Z,11.80
2023-01-31T16:07:31.751Z,7.07
2023-01-31T16:10:02.960Z,12.38
2023-01-31T16:12:33.053Z,16.23
2023-01-31T16:15:06.461Z,9.70
2023-01-31T16:17:35.175Z,7.43
2023-01-31T16:20:03.192Z,14.45
2023-01-31T16:22:32.910Z,8.32
2023-01-31T16:25:02.882Z,9.65
2023-01-31T16:27:36.473Z,8.30
2023-01-31T16:30:05.826Z,7.60
2023-01-31T16:32:40.286Z,8.63
2023-01-31T16:35:20.383Z,3.90
2023-01-31T16:38:02.088Z,4.30
2023-01-31T16:40:32.775Z,4.85
2023-01-31T16:43:11.451Z,5.25
2023-01-31T16:45:50.812Z,4.47
2023-01-31T16:48:25.418Z,4.53
2023-01-31T16:50:54.990Z,3.40
2023-01-31T16:53:30.549Z,4.97
2023-01-31T16:56:19.102Z,11.43
2023-01-31T16:58:50.363Z,3.83
2023-01-31T17:01:21.037Z,2.45
2023-01-31T17:04:03.218Z,4.43
2023-01-31T17:06:32.055Z,10.30
2023-01-31T17:09:03.711Z,3.15
2023-01-31T17:11:42.725Z,6.30
2023-01-31T17:14:11.846Z,6.43
2023-01-31T17:16:40.786Z,2.92
2023-01-31T17:19:08.741Z,4.28
2023-01-31T17:21:40.797Z,4.53
2023-01-31T17:24:14.368Z,4.32
2023-01-31T17:26:42.831Z,6.45
2023-01-31T17:29:11.041Z,3.33
2023-01-31T17:31:39.396Z,3.20
2023-01-31T17:34:13.845Z,5.18
2023-01-31T17:36:41.913Z,3.83
2023-01-31T17:39:09.949Z,3.05
2023-01-31T17:41:41.249Z,2.50
2023-01-31T17:44:14.102Z,3.97
2023-01-31T17:46:42.617Z,5.25
2023-01-31T17:49:10.568Z,2.38
2023-01-31T17:51:38.811Z,3.95
2023-01-31T17:54:06.838Z,1.98
2023-01-31T17:56:34.903Z,2.22
2023-01-31T17:59:04.951Z,1.98
2023-01-31T18:01:33.126Z,5.20
2023-01-31T18:04:01.082Z,3.08
2023-01-31T18:06:29.277Z,3.92
2023-01-31T18:08:57.341Z,4.25
2023-01-31T18:11:25.257Z,3.95
2023-01-31T18:13:53.172Z,4.72
2023-01-31T18:16:22.643Z,3.15
2023-01-31T18:18:52.405Z,4.38
2023-01-31T18:21:23.388Z,5.68
2023-01-31T18:23:52.214Z,3.83
2023-01-31T18:26:21.195Z,2.90
2023-01-31T18:28:49.742Z,5.57
2023-01-31T18:31:18.997Z,3.85
2023-01-31T18:33:49.197Z,2.90
2023-01-31T18:36:19.105Z,4.95
2023-01-31T18:38:48.969Z,10.75
2023-01-31T18:41:19.698Z,2.92
2023-01-31T18:43:48.939Z,2.28
2023-01-31T18:46:18.293Z,2.25
2023-01-31T18:48:48.051Z,4.47
2023-01-31T18:51:16.804Z,3.80
2023-01-31T18:53:46.358Z,2.72
2023-01-31T18:56:17.211Z,1.50
2023-01-31T18:58:46.162Z,5.65
2023-01-31T19:01:16.702Z,4.32
2023-01-31T19:03:46.568Z,4.68
2023-01-31T19:06:17.669Z,2.75
2023-01-31T19:08:49.111Z,7.45
2023-01-31T19:11:18.367Z,5.50
2023-01-31T19:13:46.455Z,7.65
2023-01-31T19:16:17.499Z,6.57
2023-01-31T19:18:45.869Z,3.85
2023-01-31T19:21:19.884Z,4.28
2023-01-31T19:23:49.524Z,2.60
2023-01-31T19:26:18.817Z,4.65
2023-01-31T19:28:47.764Z,3.50
2023-01-31T19:31:17.706Z,7.13
2023-01-31T19:33:49.471Z,3.30
2023-01-31T19:36:20.562Z,4.65
2023-01-31T19:38:48.697Z,2.30
2023-01-31T19:41:19.089Z,4.97
2023-01-31T19:43:47.307Z,3.35
2023-01-31T19:46:15.310Z,4.82
2023-01-31T19:48:43.550Z,4.38
2023-01-31T19:51:13.650Z,3.70
2023-01-31T19:53:43.764Z,2.47
2023-01-31T19:56:12.073Z,3.45
2023-01-31T19:58:40.074Z,3.22
2023-01-31T20:01:09.703Z,3.63
2023-01-31T20:03:38.365Z,4.78
2023-01-31T20:06:08.925Z,5.43
2023-01-31T20:08:37.493Z,2.88
2023-01-31T20:11:07.748Z,2.58
2023-01-31T20:13:36.888Z,5.43
2023-01-31T20:16:07.096Z,3.30
2023-01-31T20:18:35.753Z,4.50
2023-01-31T20:21:04.779Z,3.72
2023-01-31T20:23:32.968Z,3.17
2023-01-31T20:26:01.243Z,5.53
2023-01-31T20:28:30.742Z,4.32
2023-01-31T20:31:04.460Z,2.42
2023-01-31T20:33:32.880Z,4.85
2023-01-31T20:36:00.886Z,3.95
2023-01-31T20:38:28.994Z,3.15
2023-01-31T20:40:56.899Z,3.58
2023-01-31T20:43:26.265Z,1.73
2023-01-31T20:46:03.199Z,5.32
2023-01-31T20:48:31.399Z,5.38
2023-01-31T20:50:59.787Z,3.15
2023-01-31T20:53:29.787Z,2.90
2023-01-31T20:55:59.362Z,6.15
2023-01-31T20:58:28.367Z,3.40
2023-01-31T21:00:59.963Z,5.10
2023-01-31T21:03:29.250Z,2.67
2023-01-31T21:05:59.753Z,4.70
2023-01-31T21:08:29.004Z,3.08
2023-01-31T21:10:58.639Z,3.05
2023-01-31T21:13:29.231Z,3.78
2023-01-31T21:16:01.851Z,5.78
2023-01-31T21:18:31.651Z,5.72
2023-01-31T21:21:01.324Z,5.60
2023-01-31T21:23:29.187Z,3.95
2023-01-31T21:26:01.735Z,7.05
2023-01-31T21:28:29.719Z,7.18
2023-01-31T21:31:03.254Z,4.65
2023-01-31T21:33:32.252Z,7.10
2023-01-31T21:36:00.785Z,4.03
2023-01-31T21:38:28.907Z,6.22
2023-01-31T21:41:10.910Z,5.70
2023-01-31T21:43:41.359Z,5.30
2023-01-31T21:46:11.413Z,4.90
2023-01-31T21:48:40.049Z,4.03
2023-01-31T21:51:10.078Z,6.07
2023-01-31T21:53:38.809Z,6.40
2023-01-31T21:56:09.016Z,4.57
2023-01-31T21:58:38.426Z,4.72
2023-01-31T22:01:08.637Z,3.88
2023-01-31T22:03:39.823Z,5.65
2023-01-31T22:06:09.953Z,5.93
2023-01-31T22:08:37.947Z,4.70
2023-01-31T22:11:08.496Z,7.28
2023-01-31T22:13:36.947Z,6.57
2023-01-31T22:16:07.257Z,5.90
2023-01-31T22:18:37.816Z,10.50
2023-01-31T22:21:08.395Z,4.20
2023-01-31T22:23:37.721Z,5.85
2023-01-31T22:26:07.079Z,3.75
2023-01-31T22:28:35.933Z,5.68
2023-01-31T22:31:04.887Z,5.70
2023-01-31T22:33:34.333Z,7.50
2023-01-31T22:36:04.854Z,3.78
2023-01-31T22:38:33.188Z,4.25
2023-01-31T22:41:03.001Z,6.70
2023-01-31T22:43:31.758Z,3.38
2023-01-31T22:46:01.211Z,4.30
2023-01-31T22:48:29.166Z,3.20
2023-01-31T22:50:59.093Z,6.05
2023-01-31T22:53:31.304Z,3.55
2023-01-31T22:56:02.040Z,4.10
2023-01-31T22:58:30.123Z,3.17
2023-01-31T23:00:58.110Z,4.72
2023-01-31T23:03:27.083Z,5.72
2023-01-31T23:05:55.177Z,5.50
2023-01-31T23:08:23.205Z,4.57
2023-01-31T23:10:52.449Z,3.60
2023-01-31T23:13:20.443Z,3.42
2023-01-31T23:15:48.478Z,5.85
2023-01-31T23:18:17.066Z,2.67
2023-01-31T23:20:45.042Z,5.13
2023-01-31T23:23:13.026Z,5.95
2023-01-31T23:25:41.157Z,4.80
2023-01-31T23:28:10.541Z,5.55
2023-01-31T23:30:38.782Z,8.70
2023-01-31T23:33:06.841Z,4.47
2023-01-31T23:35:34.756Z,9.13
2023-01-31T23:38:03.437Z,6.75
2023-01-31T23:40:31.439Z,3.75
2023-01-31T23:42:59.402Z,8.32
2023-01-31T23:45:28.820Z,7.03
2023-01-31T23:47:57.113Z,4.70
2023-01-31T23:50:25.502Z,5.05
2023-01-31T23:52:53.618Z,7.88
2023-01-31T23:55:22.871Z,8.43
2023-01-31T23:57:51.125Z,5.30
